Time;durP1;ratioP1;P1;durP2;ratioP2;P2;SDS_P1;SDS_P2;PMS_P1;PMS_P2;Temp;Humidity;BMP_temperature;BMP_pressure;BME280_temperature;BME280_humidity;BME280_pressure;Samples;Min_cycle;Max_cycle;Signal;HPM_P1;HPM_P2
2022/10/01 00:02:05;;;;;;;7.50;4.50;;;;;;;;;;4990541;28;20262;-65
2022/10/01 00:04:31;;;;;;;8.18;4.30;;;;;;;;;;4996651;28;20204;-65
2022/10/01 00:06:58;;;;;;;7.45;4.38;;;;;;;;;;5000352;28;20707;-65
2022/10/01 00:09:23;;;;;;;8.10;4.55;;;;;;;;;;4999312;28;20220;-66
2022/10/01 00:11:49;;;;;;;9.20;4.63;;;;;;;;;;5000436;28;20204;-65
2022/10/01 00:14:14;;;;;;;6.35;4.40;;;;;;;;;;4999322;28;20332;-65
2022/10/01 00:16:40;;;;;;;6.63;4.47;;;;;;;;;;5000202;28;20210;-65
2022/10/01 00:19:05;;;;;;;6.30;4.15;;;;;;;;;;4998715;28;20220;-65
2022/10/01 00:21:30;;;;;;;6.30;4.05;;;;;;;;;;4992726;28;20290;-65
2022/10/01 00:23:58;;;;;;;6.30;4.30;;;;;;;;;;4993209;28;20547;-66
2022/10/01 00:26:26;;;;;;;7.53;4.35;;;;;;;;;;4993735;28;20216;-65
2022/10/01 00:28:53;;;;;;;6.38;4.38;;;;;;;;;;5000598;28;20262;-65
2022/10/01 00:31:18;;;;;;;7.00;4.68;;;;;;;;;;5005128;28;20683;-66
2022/10/01 00:33:43;;;;;;;7.43;4.43;;;;;;;;;;5006051;28;20209;-66
2022/10/01 00:36:09;;;;;;;6.90;4.93;;;;;;;;;;5004890;28;20205;-65
2022/10/01 00:38:35;;;;;;;6.38;4.70;;;;;;;;;;5005990;28;20334;-65
2022/10/01 00:41:00;;;;;;;8.45;4.65;;;;;;;;;;5005292;28;20212;-65
2022/10/01 00:43:27;;;;;;;6.78;4.72;;;;;;;;;;4994950;28;20270;-66
2022/10/01 00:45:53;;;;;;;6.40;4.30;;;;;;;;;;5006133;28;20279;-65
2022/10/01 00:48:18;;;;;;;7.80;4.53;;;;;;;;;;5009631;28;20249;-65
2022/10/01 00:50:44;;;;;;;9.75;4.70;;;;;;;;;;5008364;28;20294;-65
2022/10/01 00:53:15;;;;;;;7.70;4.68;;;;;;;;;;5009573;28;20572;-65
2022/10/01 00:55:41;;;;;;;6.80;4.50;;;;;;;;;;5008193;28;20244;-65
2022/10/01 00:58:07;;;;;;;7.45;4.43;;;;;;;;;;5008198;28;20368;-65
2022/10/01 01:00:32;;;;;;;7.43;4.38;;;;;;;;;;5007835;28;20303;-65
2022/10/01 01:02:57;;;;;;;7.28;4.78;;;;;;;;;;5009017;28;20252;-65
2022/10/01 01:05:23;;;;;;;7.47;4.68;;;;;;;;;;5008552;28;20427;-65
2022/10/01 01:07:49;;;;;;;8.05;4.82;;;;;;;;;;5009192;28;20714;-65
2022/10/01 01:10:15;;;;;;;8.50;4.88;;;;;;;;;;5007265;28;20363;-65
2022/10/01 01:12:41;;;;;;;7.30;4.70;;;;;;;;;;5007760;28;20286;-65
2022/10/01 01:15:26;;;;;;;6.85;4.78;;;;;;;;;;5007870;28;20727;-65
2022/10/01 01:17:58;;;;;;;9.00;5.38;;;;;;;;;;5008285;28;20761;-66
2022/10/01 01:20:25;;;;;;;6.65;4.80;;;;;;;;;;5009132;28;20209;-65
2022/10/01 01:22:53;;;;;;;7.43;5.18;;;;;;;;;;5009501;28;20216;-66
2022/10/01 01:25:19;;;;;;;7.00;4.57;;;;;;;;;;5006633;28;20220;-66
2022/10/01 01:28:10;;;;;;;8.48;5.00;;;;;;;;;;5008118;28;20211;-65
2022/10/01 01:30:37;;;;;;;6.70;4.53;;;;;;;;;;5007725;28;20223;-66
2022/10/01 01:33:03;;;;;;;9.57;5.20;;;;;;;;;;5007894;28;20362;-65
2022/10/01 01:35:32;;;;;;;10.20;5.10;;;;;;;;;;5008007;28;20299;-65
2022/10/01 01:38:00;;;;;;;8.10;4.88;;;;;;;;;;5009503;28;20266;-66
2022/10/01 01:40:26;;;;;;;7.97;4.97;;;;;;;;;;5007194;28;20262;-65
2022/10/01 01:42:51;;;;;;;8.52;4.80;;;;;;;;;;5008928;28;20587;-65
2022/10/01 01:45:17;;;;;;;7.05;4.57;;;;;;;;;;5006266;28;20244;-65
2022/10/01 01:47:43;;;;;;;7.47;5.00;;;;;;;;;;5006800;28;20570;-65
2022/10/01 01:50:08;;;;;;;7.78;4.88;;;;;;;;;;5006928;28;20254;-65
2022/10/01 01:52:33;;;;;;;7.70;5.03;;;;;;;;;;5007436;28;20201;-65
2022/10/01 01:55:00;;;;;;;7.65;4.78;;;;;;;;;;5008397;28;20596;-64
2022/10/01 01:57:25;;;;;;;8.48;4.97;;;;;;;;;;5008217;28;20224;-65
2022/10/01 01:59:51;;;;;;;6.60;4.55;;;;;;;;;;5008253;28;20211;-65
2022/10/01 02:02:18;;;;;;;6.65;4.30;;;;;;;;;;5007340;28;20247;-65
2022/10/01 02:04:46;;;;;;;5.65;4.28;;;;;;;;;;5008183;28;20668;-65
2022/10/01 02:07:25;;;;;;;7.00;4.63;;;;;;;;;;5007175;28;20235;-64
2022/10/01 02:09:51;;;;;;;6.88;4.05;;;;;;;;;;4991261;28;20220;-65
2022/10/01 02:12:17;;;;;;;7.72;4.32;;;;;;;;;;4990723;28;20223;-65
2022/10/01 02:14:51;;;;;;;7.90;4.65;;;;;;;;;;4990226;28;20950;-66
2022/10/01 02:17:21;;;;;;;5.78;4.00;;;;;;;;;;4993435;28;20440;-66
2022/10/01 02:19:50;;;;;;;6.38;4.20;;;;;;;;;;4995659;28;20208;-66
2022/10/01 02:22:26;;;;;;;8.48;4.60;;;;;;;;;;4994755;28;20223;-66
2022/10/01 02:24:56;;;;;;;6.35;3.60;;;;;;;;;;4996444;28;20727;-66
2022/10/01 02:27:24;;;;;;;5.38;3.58;;;;;;;;;;4995697;28;20209;-65
2022/10/01 02:29:49;;;;;;;4.68;3.30;;;;;;;;;;4996582;28;20240;-65
2022/10/01 02:32:14;;;;;;;4.90;3.17;;;;;;;;;;4991526;28;20286;-65
2022/10/01 02:34:40;;;;;;;3.88;2.92;;;;;;;;;;4989207;28;20774;-65
2022/10/01 02:37:05;;;;;;;6.10;3.47;;;;;;;;;;4988022;28;20224;-65
2022/10/01 02:39:30;;;;;;;4.70;3.17;;;;;;;;;;4994659;28;20256;-65
2022/10/01 02:41:56;;;;;;;6.63;3.08;;;;;;;;;;4995228;28;20715;-66
2022/10/01 02:44:23;;;;;;;5.35;2.97;;;;;;;;;;4997228;28;20671;-65
2022/10/01 02:46:52;;;;;;;3.85;2.70;;;;;;;;;;5001934;28;20212;-65
2022/10/01 02:49:17;;;;;;;4.70;2.90;;;;;;;;;;5000932;28;20504;-65
2022/10/01 02:51:52;;;;;;;6.05;2.88;;;;;;;;;;5003618;28;20743;-65
2022/10/01 02:54:19;;;;;;;4.20;2.38;;;;;;;;;;4998252;28;20247;-65
2022/10/01 02:59:28;;;;;;;3.35;2.10;;;;;;;;;;4988947;28;20235;-65
2022/10/01 03:01:53;;;;;;;2.70;2.03;;;;;;;;;;4994543;28;20634;-65
2022/10/01 03:04:18;;;;;;;2.78;1.85;;;;;;;;;;4996085;28;20679;-65
2022/10/01 03:06:45;;;;;;;3.35;2.38;;;;;;;;;;4997047;28;20489;-65
2022/10/01 03:09:10;;;;;;;3.22;2.03;;;;;;;;;;4996717;28;20222;-64
2022/10/01 03:11:36;;;;;;;4.30;1.90;;;;;;;;;;4995675;28;20858;-65
2022/10/01 03:14:02;;;;;;;2.60;1.70;;;;;;;;;;4996847;28;20316;-64
2022/10/01 03:16:28;;;;;;;4.70;1.55;;;;;;;;;;4995604;28;20568;-64
2022/10/01 03:18:53;;;;;;;3.75;1.58;;;;;;;;;;4990605;28;20593;-64
2022/10/01 03:21:18;;;;;;;1.98;1.63;;;;;;;;;;4989173;28;20225;-65
2022/10/01 03:23:43;;;;;;;1.48;1.15;;;;;;;;;;4991650;28;20446;-65
2022/10/01 03:26:09;;;;;;;1.95;1.55;;;;;;;;;;4995627;28;20236;-64
2022/10/01 03:28:34;;;;;;;3.65;1.80;;;;;;;;;;4995264;28;20231;-65
2022/10/01 03:31:06;;;;;;;2.40;1.63;;;;;;;;;;4996167;28;21021;-65
2022/10/01 03:33:31;;;;;;;3.63;1.95;;;;;;;;;;4996197;28;20208;-65
2022/10/01 03:35:56;;;;;;;3.90;2.53;;;;;;;;;;4996111;28;20571;-64
2022/10/01 03:38:22;;;;;;;3.10;2.20;;;;;;;;;;5000130;28;20278;-64
2022/10/01 03:40:47;;;;;;;4.80;2.45;;;;;;;;;;4995291;28;20207;-64
2022/10/01 03:43:12;;;;;;;3.97;2.30;;;;;;;;;;4993427;28;21076;-64
2022/10/01 03:45:38;;;;;;;5.57;2.83;;;;;;;;;;4993083;28;20698;-64
2022/10/01 03:48:03;;;;;;;5.18;3.13;;;;;;;;;;4999330;28;20303;-64
2022/10/01 03:50:28;;;;;;;4.55;2.42;;;;;;;;;;4999692;28;20669;-65
2022/10/01 03:52:54;;;;;;;4.38;2.38;;;;;;;;;;4999688;28;20224;-65
2022/10/01 03:55:19;;;;;;;3.00;2.00;;;;;;;;;;4999223;28;20224;-64
2022/10/01 03:57:44;;;;;;;2.60;1.60;;;;;;;;;;5000180;28;20577;-65
2022/10/01 04:00:10;;;;;;;2.03;1.30;;;;;;;;;;4999741;28;20209;-64
2022/10/01 04:02:36;;;;;;;1.35;1.10;;;;;;;;;;4997277;28;20446;-64
2022/10/01 04:05:01;;;;;;;3.22;1.73;;;;;;;;;;4992404;28;20450;-64
2022/10/01 04:07:26;;;;;;;4.80;1.80;;;;;;;;;;4993147;28;20216;-64
2022/10/01 04:09:52;;;;;;;2.55;1.40;;;;;;;;;;4997715;28;20219;-64
2022/10/01 04:12:17;;;;;;;2.30;1.42;;;;;;;;;;5000089;28;20235;-64
2022/10/01 04:14:43;;;;;;;3.90;1.50;;;;;;;;;;5000000;28;20208;-64
2022/10/01 04:17:08;;;;;;;1.45;1.10;;;;;;;;;;4999002;28;20232;-64
2022/10/01 04:19:33;;;;;;;3.30;1.20;;;;;;;;;;5000083;28;20219;-64
2022/10/01 04:21:58;;;;;;;1.40;1.00;;;;;;;;;;4998740;28;21084;-64
2022/10/01 04:24:24;;;;;;;1.42;1.00;;;;;;;;;;4999906;28;20220;-64
2022/10/01 04:26:49;;;;;;;1.60;1.30;;;;;;;;;;4999564;28;20592;-64
2022/10/01 04:29:15;;;;;;;1.40;1.10;;;;;;;;;;4997582;28;20266;-64
2022/10/01 04:31:40;;;;;;;2.75;1.30;;;;;;;;;;5000139;28;20213;-64
2022/10/01 04:34:05;;;;;;;1.60;1.17;;;;;;;;;;4998981;28;20204;-64
2022/10/01 04:36:31;;;;;;;1.45;0.90;;;;;;;;;;4999118;28;20204;-64
2022/10/01 04:38:56;;;;;;;1.73;1.30;;;;;;;;;;4999122;28;20221;-64
2022/10/01 04:41:21;;;;;;;2.78;1.63;;;;;;;;;;4998927;28;20204;-64
2022/10/01 04:43:47;;;;;;;1.30;1.10;;;;;;;;;;4997333;28;20255;-64
2022/10/01 04:46:13;;;;;;;1.58;1.00;;;;;;;;;;4999462;28;20332;-64
2022/10/01 04:48:38;;;;;;;2.35;1.10;;;;;;;;;;4999122;28;20215;-64
2022/10/01 04:51:03;;;;;;;2.58;1.00;;;;;;;;;;4999116;28;20601;-64
2022/10/01 04:53:29;;;;;;;1.60;1.00;;;;;;;;;;4998590;28;20209;-64
2022/10/01 04:55:54;;;;;;;3.42;1.02;;;;;;;;;;4998468;28;20303;-64
2022/10/01 04:58:19;;;;;;;2.28;1.20;;;;;;;;;;5003487;28;20228;-64
2022/10/01 05:00:45;;;;;;;0.82;0.80;;;;;;;;;;5016115;28;20676;-63
2022/10/01 05:03:10;;;;;;;2.75;1.00;;;;;;;;;;5013849;28;20217;-63
2022/10/01 05:05:36;;;;;;;1.47;1.00;;;;;;;;;;5014753;28;20469;-63
2022/10/01 05:08:01;;;;;;;1.10;0.90;;;;;;;;;;5014230;28;20702;-63
2022/10/01 05:10:26;;;;;;;1.92;1.08;;;;;;;;;;5012719;28;20423;-64
2022/10/01 05:12:52;;;;;;;1.95;1.20;;;;;;;;;;5014538;28;20216;-64
2022/10/01 05:15:17;;;;;;;1.63;1.08;;;;;;;;;;5017546;28;20223;-64
2022/10/01 05:17:42;;;;;;;1.58;0.95;;;;;;;;;;5017167;28;20223;-64
2022/10/01 05:20:10;;;;;;;1.77;1.10;;;;;;;;;;5017779;28;20220;-64
2022/10/01 05:22:35;;;;;;;2.60;0.98;;;;;;;;;;5013186;28;20346;-64
2022/10/01 05:25:01;;;;;;;1.58;1.00;;;;;;;;;;5018976;28;20286;-64
2022/10/01 05:27:26;;;;;;;1.50;1.00;;;;;;;;;;5018057;28;20212;-66
2022/10/01 05:29:52;;;;;;;1.73;1.25;;;;;;;;;;5026444;28;20208;-64
2022/10/01 05:32:18;;;;;;;1.80;1.08;;;;;;;;;;5017265;28;20687;-65
2022/10/01 05:34:43;;;;;;;3.35;1.48;;;;;;;;;;5019468;28;20236;-64
2022/10/01 05:37:10;;;;;;;2.63;1.30;;;;;;;;;;5016582;28;20687;-64
2022/10/01 05:39:36;;;;;;;1.67;1.20;;;;;;;;;;5016185;28;20215;-63
2022/10/01 05:42:01;;;;;;;2.22;1.50;;;;;;;;;;5016444;28;20559;-63
2022/10/01 05:44:27;;;;;;;1.85;1.60;;;;;;;;;;5017441;28;20213;-64
2022/10/01 05:46:52;;;;;;;4.05;1.55;;;;;;;;;;5018346;28;20223;-65
2022/10/01 05:49:18;;;;;;;3.08;1.70;;;;;;;;;;5015019;28;20581;-65
2022/10/01 05:51:43;;;;;;;1.98;1.67;;;;;;;;;;5016307;28;20221;-65
2022/10/01 05:54:09;;;;;;;3.40;1.77;;;;;;;;;;5016064;28;20699;-65
2022/10/01 05:56:35;;;;;;;2.50;1.60;;;;;;;;;;5018228;28;20675;-65
2022/10/01 05:59:01;;;;;;;4.25;1.80;;;;;;;;;;4994221;28;20236;-64
2022/10/01 06:01:26;;;;;;;3.80;2.03;;;;;;;;;;5009489;28;20236;-65
2022/10/01 06:03:52;;;;;;;2.55;1.60;;;;;;;;;;5012860;28;20239;-65
2022/10/01 06:06:23;;;;;;;3.38;1.80;;;;;;;;;;5007308;28;20217;-65
2022/10/01 06:08:49;;;;;;;3.25;1.73;;;;;;;;;;5008651;28;20211;-65
2022/10/01 06:11:15;;;;;;;2.28;1.58;;;;;;;;;;5008909;28;20232;-65
2022/10/01 06:13:43;;;;;;;2.83;1.70;;;;;;;;;;5009000;28;20224;-65
2022/10/01 06:16:09;;;;;;;3.58;1.95;;;;;;;;;;5004920;28;20212;-64
2022/10/01 06:18:34;;;;;;;2.05;1.70;;;;;;;;;;5008097;28;20634;-64
2022/10/01 06:20:59;;;;;;;2.70;1.80;;;;;;;;;;5006806;28;20710;-64
2022/10/01 06:23:25;;;;;;;3.33;2.10;;;;;;;;;;5008039;28;20228;-64
2022/10/01 06:25:50;;;;;;;3.58;2.00;;;;;;;;;;5009032;28;20525;-62
2022/10/01 06:28:16;;;;;;;5.38;2.00;;;;;;;;;;5007278;28;20216;-63
2022/10/01 06:30:42;;;;;;;3.38;2.33;;;;;;;;;;5007374;28;20200;-62
2022/10/01 06:33:08;;;;;;;4.15;2.35;;;;;;;;;;5007221;28;20578;-63
2022/10/01 06:35:34;;;;;;;3.83;3.03;;;;;;;;;;5003751;28;20692;-63
2022/10/01 06:38:00;;;;;;;5.32;3.45;;;;;;;;;;5007066;28;20340;-63
2022/10/01 06:40:27;;;;;;;5.57;3.38;;;;;;;;;;5006566;28;20680;-62
2022/10/01 06:42:52;;;;;;;7.25;3.53;;;;;;;;;;5006095;28;20196;-63
2022/10/01 06:45:18;;;;;;;5.80;3.00;;;;;;;;;;5006581;28;20205;-63
2022/10/01 06:47:43;;;;;;;5.35;3.38;;;;;;;;;;5007215;28;20209;-63
2022/10/01 06:50:09;;;;;;;6.18;3.60;;;;;;;;;;5006342;28;20224;-63
2022/10/01 06:52:47;;;;;;;5.72;3.20;;;;;;;;;;5009465;28;20295;-63
2022/10/01 06:55:13;;;;;;;5.32;3.80;;;;;;;;;;5007353;28;20484;-63
2022/10/01 06:57:39;;;;;;;5.68;3.70;;;;;;;;;;5008370;28;20236;-63
2022/10/01 07:00:04;;;;;;;5.18;3.88;;;;;;;;;;5007562;28;20208;-63
2022/10/01 07:02:31;;;;;;;6.40;4.20;;;;;;;;;;5007667;28;20205;-63
2022/10/01 07:04:59;;;;;;;5.63;4.30;;;;;;;;;;5008327;28;20239;-63
2022/10/01 07:07:28;;;;;;;7.70;4.60;;;;;;;;;;5007485;28;20269;-63
2022/10/01 07:09:54;;;;;;;7.45;4.68;;;;;;;;;;5006951;28;20220;-62
2022/10/01 07:12:19;;;;;;;6.78;4.75;;;;;;;;;;5005365;28;20217;-62
2022/10/01 07:14:44;;;;;;;6.95;4.55;;;;;;;;;;4999241;28;20224;-63
2022/10/01 07:17:10;;;;;;;9.73;5.40;;;;;;;;;;5011277;28;20223;-62
2022/10/01 07:19:35;;;;;;;7.85;4.70;;;;;;;;;;5009174;28;20276;-62
2022/10/01 07:22:00;;;;;;;5.88;4.20;;;;;;;;;;5010096;28;20844;-62
2022/10/01 07:24:26;;;;;;;6.78;4.45;;;;;;;;;;5004096;28;20217;-64
2022/10/01 07:26:54;;;;;;;7.13;4.95;;;;;;;;;;5012515;28;20199;-64
2022/10/01 07:29:19;;;;;;;9.85;5.07;;;;;;;;;;5009337;28;20733;-63
2022/10/01 07:31:45;;;;;;;6.40;4.68;;;;;;;;;;5008813;28;20212;-63
2022/10/01 07:34:10;;;;;;;7.93;5.38;;;;;;;;;;5006053;28;20205;-63
2022/10/01 07:36:35;;;;;;;6.68;5.20;;;;;;;;;;5006301;28;20212;-63
2022/10/01 07:39:01;;;;;;;10.95;5.40;;;;;;;;;;5009627;28;20231;-63
2022/10/01 07:41:26;;;;;;;7.50;5.57;;;;;;;;;;5013033;28;20211;-63
2022/10/01 07:43:51;;;;;;;8.40;5.55;;;;;;;;;;5013339;28;20242;-62
2022/10/01 07:46:16;;;;;;;8.13;5.95;;;;;;;;;;5015877;28;20751;-61
2022/10/01 07:48:45;;;;;;;9.73;6.13;;;;;;;;;;5019305;28;20449;-62
2022/10/01 07:51:10;;;;;;;10.82;6.68;;;;;;;;;;5006297;28;20205;-62
2022/10/01 07:53:35;;;;;;;9.20;6.47;;;;;;;;;;5005679;28;20227;-62
2022/10/01 07:56:01;;;;;;;8.73;6.60;;;;;;;;;;5005983;28;20545;-62
2022/10/01 07:58:26;;;;;;;8.93;6.65;;;;;;;;;;5005730;28;20212;-62
2022/10/01 08:00:56;;;;;;;11.52;6.68;;;;;;;;;;5006859;28;20564;-62
2022/10/01 08:03:22;;;;;;;11.05;7.38;;;;;;;;;;5006516;28;20208;-62
2022/10/01 08:05:48;;;;;;;10.70;7.30;;;;;;;;;;5005969;28;20205;-62
2022/10/01 08:08:13;;;;;;;9.63;7.07;;;;;;;;;;5006715;28;20209;-62
2022/10/01 08:10:40;;;;;;;11.27;7.10;;;;;;;;;;5007327;28;20222;-62
2022/10/01 08:13:07;;;;;;;11.60;7.50;;;;;;;;;;5005715;28;20670;-63
2022/10/01 08:15:33;;;;;;;11.32;7.25;;;;;;;;;;5006862;28;20230;-62
2022/10/01 08:18:00;;;;;;;10.80;7.85;;;;;;;;;;5006234;28;20216;-62
2022/10/01 08:20:25;;;;;;;9.60;7.65;;;;;;;;;;5005475;28;20255;-62
2022/10/01 08:22:50;;;;;;;12.20;8.60;;;;;;;;;;5007411;28;20204;-62
2022/10/01 08:25:16;;;;;;;18.20;8.35;;;;;;;;;;5010243;28;20227;-62
2022/10/01 08:27:41;;;;;;;9.48;7.28;;;;;;;;;;5008459;28;20243;-62
2022/10/01 08:30:07;;;;;;;10.07;7.63;;;;;;;;;;5008671;28;20212;-62
2022/10/01 08:32:32;;;;;;;9.10;7.22;;;;;;;;;;5009236;28;20212;-62
2022/10/01 08:34:58;;;;;;;9.70;7.72;;;;;;;;;;5008502;28;20220;-62
2022/10/01 08:37:25;;;;;;;9.15;6.15;;;;;;;;;;5008621;28;20220;-62
2022/10/01 08:39:51;;;;;;;9.25;6.45;;;;;;;;;;5009927;28;20212;-62
2022/10/01 08:42:17;;;;;;;10.30;6.07;;;;;;;;;;5008398;28;20224;-62
2022/10/01 08:44:43;;;;;;;9.98;6.05;;;;;;;;;;5009672;28;20255;-62
2022/10/01 08:47:23;;;;;;;8.43;5.85;;;;;;;;;;5009849;28;20204;-63
2022/10/01 08:49:50;;;;;;;7.95;5.80;;;;;;;;;;5007777;28;20682;-62
2022/10/01 08:52:19;;;;;;;12.63;7.38;;;;;;;;;;5009509;28;20223;-63
2022/10/01 08:54:46;;;;;;;11.80;7.35;;;;;;;;;;5008985;28;20231;-65
2022/10/01 08:57:13;;;;;;;11.52;7.07;;;;;;;;;;5008787;28;20220;-64
2022/10/01 08:59:41;;;;;;;13.25;7.28;;;;;;;;;;5008425;28;20208;-63
2022/10/01 09:02:18;;;;;;;10.35;7.35;;;;;;;;;;5008257;28;20204;-63
2022/10/01 09:04:44;;;;;;;11.40;7.57;;;;;;;;;;5009592;28;20270;-64
2022/10/01 09:07:14;;;;;;;11.93;7.75;;;;;;;;;;5008403;28;20569;-64
2022/10/01 09:09:43;;;;;;;9.45;6.93;;;;;;;;;;5007794;28;20201;-64
2022/10/01 09:12:08;;;;;;;9.52;6.20;;;;;;;;;;5007777;28;20215;-64
2022/10/01 09:14:52;;;;;;;10.80;6.45;;;;;;;;;;5008455;28;20213;-63
2022/10/01 09:17:39;;;;;;;11.30;6.70;;;;;;;;;;5007990;28;20244;-66
2022/10/01 09:20:11;;;;;;;8.57;6.38;;;;;;;;;;4988518;28;20296;-64
2022/10/01 09:22:37;;;;;;;8.13;6.22;;;;;;;;;;4989667;28;20208;-63
2022/10/01 09:25:21;;;;;;;7.82;5.75;;;;;;;;;;4986662;28;20447;-64
2022/10/01 09:27:47;;;;;;;6.90;5.22;;;;;;;;;;5001391;28;20516;-63
2022/10/01 09:30:12;;;;;;;10.80;5.90;;;;;;;;;;5002122;28;20691;-64
2022/10/01 09:32:43;;;;;;;11.43;6.30;;;;;;;;;;4995817;28;20569;-63
2022/10/01 09:35:18;;;;;;;10.65;6.50;;;;;;;;;;4995453;28;20423;-63
2022/10/01 09:37:44;;;;;;;9.45;6.97;;;;;;;;;;4995390;28;20781;-64
2022/10/01 09:40:14;;;;;;;7.78;5.88;;;;;;;;;;4999026;28;20213;-62
2022/10/01 09:42:39;;;;;;;8.43;5.65;;;;;;;;;;5001096;28;20252;-61
2022/10/01 09:45:05;;;;;;;7.93;5.65;;;;;;;;;;5001753;28;20243;-62
2022/10/01 09:47:30;;;;;;;9.38;5.70;;;;;;;;;;5003078;28;20228;-63
2022/10/01 09:49:56;;;;;;;7.15;5.03;;;;;;;;;;5001796;28;20263;-63
2022/10/01 09:52:25;;;;;;;11.20;6.05;;;;;;;;;;5000365;28;20716;-63
2022/10/01 09:55:06;;;;;;;11.98;6.88;;;;;;;;;;4997777;28;20619;-63
2022/10/01 09:57:34;;;;;;;11.68;5.22;;;;;;;;;;4995420;28;20217;-63
2022/10/01 10:00:06;;;;;;;8.25;4.75;;;;;;;;;;4995989;28;20223;-63
2022/10/01 10:02:35;;;;;;;6.75;3.40;;;;;;;;;;5000111;28;20212;-63
2022/10/01 10:05:00;;;;;;;6.47;3.58;;;;;;;;;;4998631;28;20279;-63
2022/10/01 10:07:26;;;;;;;5.82;2.63;;;;;;;;;;5001786;28;20216;-61
2022/10/01 10:09:52;;;;;;;5.38;2.30;;;;;;;;;;5001646;28;20300;-63
2022/10/01 10:12:23;;;;;;;3.03;1.70;;;;;;;;;;5000161;28;20737;-62
2022/10/01 10:14:48;;;;;;;6.57;1.90;;;;;;;;;;5000579;28;20211;-62
2022/10/01 10:17:20;;;;;;;7.47;2.10;;;;;;;;;;4999754;28;20252;-61
2022/10/01 10:19:48;;;;;;;8.27;2.08;;;;;;;;;;4994745;28;20224;-62
2022/10/01 10:22:22;;;;;;;8.20;2.20;;;;;;;;;;4995159;28;20209;-62
2022/10/01 10:24:47;;;;;;;6.45;2.40;;;;;;;;;;4997107;28;20653;-62
2022/10/01 10:27:24;;;;;;;6.20;2.22;;;;;;;;;;5000525;28;20204;-63
2022/10/01 10:29:59;;;;;;;8.13;1.70;;;;;;;;;;5001879;28;20214;-62
2022/10/01 10:32:24;;;;;;;7.35;1.70;;;;;;;;;;5001661;28;20219;-62
2022/10/01 10:34:51;;;;;;;7.85;1.63;;;;;;;;;;5000331;28;20212;-62
2022/10/01 10:37:18;;;;;;;7.60;1.70;;;;;;;;;;4999791;28;20220;-62
2022/10/01 10:39:45;;;;;;;7.20;1.45;;;;;;;;;;5000243;28;20227;-62
2022/10/01 10:42:13;;;;;;;7.20;1.50;;;;;;;;;;4995573;28;20217;-62
2022/10/01 10:44:40;;;;;;;7.47;1.70;;;;;;;;;;4999158;28;20232;-62
2022/10/01 10:47:07;;;;;;;6.93;1.40;;;;;;;;;;5000374;28;20296;-62
2022/10/01 10:49:33;;;;;;;9.98;1.95;;;;;;;;;;5005270;28;20553;-62
2022/10/01 10:51:59;;;;;;;4.93;1.40;;;;;;;;;;5006664;28;20248;-62
2022/10/01 10:54:30;;;;;;;8.48;2.00;;;;;;;;;;5005936;28;20330;-63
2022/10/01 10:57:01;;;;;;;9.80;1.75;;;;;;;;;;5001856;28;20302;-62
2022/10/01 10:59:30;;;;;;;6.43;1.60;;;;;;;;;;5000278;28;20328;-62
2022/10/01 11:01:55;;;;;;;8.02;2.35;;;;;;;;;;5000049;28;20294;-62
2022/10/01 11:04:31;;;;;;;8.40;1.60;;;;;;;;;;4992650;28;20206;-62
2022/10/01 11:06:56;;;;;;;6.70;1.70;;;;;;;;;;4994965;28;20243;-62
2022/10/01 11:09:22;;;;;;;11.90;1.95;;;;;;;;;;4995492;28;20651;-63
2022/10/01 11:11:54;;;;;;;9.73;2.00;;;;;;;;;;4999513;28;20675;-63
2022/10/01 11:14:35;;;;;;;9.38;1.75;;;;;;;;;;4999394;28;20220;-62
2022/10/01 11:17:08;;;;;;;8.15;1.50;;;;;;;;;;5000715;28;20731;-62
2022/10/01 11:19:43;;;;;;;12.05;1.70;;;;;;;;;;5000880;28;20224;-62
2022/10/01 11:22:12;;;;;;;6.97;1.55;;;;;;;;;;5001595;28;20212;-62
2022/10/01 11:24:49;;;;;;;7.97;1.70;;;;;;;;;;4999727;28;20208;-62
2022/10/01 11:27:23;;;;;;;7.32;1.92;;;;;;;;;;4993765;28;20933;-62
2022/10/01 11:29:55;;;;;;;8.32;2.15;;;;;;;;;;4994123;28;20212;-63
2022/10/01 11:32:23;;;;;;;8.82;1.80;;;;;;;;;;4997168;28;20230;-62
2022/10/01 11:34:55;;;;;;;9.88;1.70;;;;;;;;;;5001562;28;20219;-63
2022/10/01 11:37:40;;;;;;;9.30;1.35;;;;;;;;;;4999588;28;20333;-63
2022/10/01 11:40:18;;;;;;;8.23;1.50;;;;;;;;;;4998704;28;20242;-62
2022/10/01 11:42:44;;;;;;;6.32;1.10;;;;;;;;;;5000793;28;20216;-62
2022/10/01 11:45:20;;;;;;;6.75;1.20;;;;;;;;;;4998160;28;20742;-63
2022/10/01 11:47:48;;;;;;;8.27;1.70;;;;;;;;;;4998303;28;20790;-63
2022/10/01 11:50:17;;;;;;;6.75;1.70;;;;;;;;;;4993747;28;20215;-62
2022/10/01 11:52:48;;;;;;;5.07;1.27;;;;;;;;;;4992504;28;21169;-62
2022/10/01 12:00:50;;;;;;;11.95;1.95;;;;;;;;;;4997318;28;20263;-63
2022/10/01 12:03:17;;;;;;;7.43;1.33;;;;;;;;;;5018083;28;20278;-63
2022/10/01 12:05:42;;;;;;;9.43;1.60;;;;;;;;;;5004484;28;20271;-62
2022/10/01 12:08:15;;;;;;;10.68;1.48;;;;;;;;;;5003871;28;20211;-62
2022/10/01 12:10:42;;;;;;;8.68;1.60;;;;;;;;;;5000472;28;20286;-63
2022/10/01 12:13:07;;;;;;;9.30;1.88;;;;;;;;;;4996465;28;20501;-63
2022/10/01 12:15:36;;;;;;;8.18;1.65;;;;;;;;;;4998074;28;20688;-63
2022/10/01 12:18:05;;;;;;;7.90;1.33;;;;;;;;;;4998924;28;20239;-64
2022/10/01 12:20:30;;;;;;;6.35;1.30;;;;;;;;;;5003967;28;20296;-63
2022/10/01 12:22:56;;;;;;;6.28;1.40;;;;;;;;;;5004181;28;20308;-63
2022/10/01 12:25:24;;;;;;;8.55;1.40;;;;;;;;;;5002680;28;20208;-63
2022/10/01 12:27:56;;;;;;;8.38;1.48;;;;;;;;;;5001754;28;20242;-62
2022/10/01 12:30:22;;;;;;;8.57;1.40;;;;;;;;;;5002210;28;20302;-62
2022/10/01 12:32:55;;;;;;;8.23;1.73;;;;;;;;;;5000523;28;20438;-63
2022/10/01 12:35:21;;;;;;;5.88;1.25;;;;;;;;;;4995506;28;20220;-62
2022/10/01 12:37:48;;;;;;;7.70;1.42;;;;;;;;;;4997560;28;20227;-62
2022/10/01 12:40:14;;;;;;;9.05;1.70;;;;;;;;;;4998678;28;20224;-63
2022/10/01 12:42:50;;;;;;;7.25;1.33;;;;;;;;;;5004056;28;20231;-62
2022/10/01 12:45:24;;;;;;;7.03;1.30;;;;;;;;;;5001980;28;20234;-62
2022/10/01 12:47:59;;;;;;;6.80;1.50;;;;;;;;;;5001666;28;20255;-63
2022/10/01 12:50:24;;;;;;;13.73;2.47;;;;;;;;;;5001912;28;20208;-62
2022/10/01 12:52:53;;;;;;;6.95;1.63;;;;;;;;;;5003930;28;20224;-62
2022/10/01 12:55:21;;;;;;;8.82;2.08;;;;;;;;;;5000347;28;20240;-61
2022/10/01 12:57:57;;;;;;;11.38;2.20;;;;;;;;;;4996124;28;20233;-61
2022/10/01 13:00:24;;;;;;;8.82;1.40;;;;;;;;;;4995253;28;20378;-61
2022/10/01 13:02:59;;;;;;;9.35;1.55;;;;;;;;;;4998439;28;20266;-61
2022/10/01 13:05:26;;;;;;;7.20;1.60;;;;;;;;;;5003229;28;20224;-61
2022/10/01 13:07:58;;;;;;;6.93;1.35;;;;;;;;;;5002902;28;20761;-61
2022/10/01 13:10:28;;;;;;;6.50;1.38;;;;;;;;;;5001963;28;20656;-61
2022/10/01 13:13:00;;;;;;;8.88;1.70;;;;;;;;;;5001845;28;20216;-61
2022/10/01 13:15:28;;;;;;;8.48;1.83;;;;;;;;;;5000882;28;20726;-61
2022/10/01 13:17:56;;;;;;;8.73;1.77;;;;;;;;;;5001124;28;20231;-61
2022/10/01 13:20:26;;;;;;;7.97;1.70;;;;;;;;;;4993733;28;20236;-61
2022/10/01 13:22:55;;;;;;;10.35;2.15;;;;;;;;;;4993609;28;20216;-61
2022/10/01 13:25:21;;;;;;;9.23;1.55;;;;;;;;;;4995715;28;20307;-61
2022/10/01 13:27:56;;;;;;;9.60;1.70;;;;;;;;;;5002985;28;20228;-61
2022/10/01 13:30:22;;;;;;;8.68;1.70;;;;;;;;;;5001727;28;20204;-61
2022/10/01 13:32:50;;;;;;;7.57;1.40;;;;;;;;;;5008496;28;20219;-61
2022/10/01 13:35:22;;;;;;;7.50;1.50;;;;;;;;;;5007404;28;20219;-61
2022/10/01 13:37:48;;;;;;;8.13;2.08;;;;;;;;;;4997677;28;20218;-61
2022/10/01 13:40:21;;;;;;;7.85;1.60;;;;;;;;;;4995743;28;20509;-61
2022/10/01 13:42:47;;;;;;;10.38;2.20;;;;;;;;;;5008272;28;20240;-61
2022/10/01 13:45:21;;;;;;;9.95;1.58;;;;;;;;;;5008075;28;20457;-61
2022/10/01 13:47:47;;;;;;;11.65;2.10;;;;;;;;;;5017649;28;20203;-61
2022/10/01 13:50:21;;;;;;;10.18;2.38;;;;;;;;;;5007552;28;20213;-61
2022/10/01 13:52:46;;;;;;;8.30;1.80;;;;;;;;;;5008049;28;20208;-62
2022/10/01 13:55:23;;;;;;;7.85;1.65;;;;;;;;;;5008114;28;20235;-62
2022/10/01 13:57:48;;;;;;;7.43;1.60;;;;;;;;;;5006497;28;20637;-62
2022/10/01 14:00:13;;;;;;;8.93;1.65;;;;;;;;;;5008035;28;20243;-62
2022/10/01 14:02:40;;;;;;;9.95;2.25;;;;;;;;;;5008645;28;20662;-62
2022/10/01 14:05:06;;;;;;;9.10;1.95;;;;;;;;;;5006402;28;20496;-62
2022/10/01 14:07:32;;;;;;;9.23;2.00;;;;;;;;;;5008494;28;20328;-63
2022/10/01 14:09:58;;;;;;;8.38;1.70;;;;;;;;;;5007151;28;20485;-63
2022/10/01 14:17:58;;;;;;;8.20;1.75;;;;;;;;;;5006039;28;20250;-63
2022/10/01 14:20:24;;;;;;;11.48;1.65;;;;;;;;;;5005051;28;20662;-61
2022/10/01 14:22:54;;;;;;;9.63;1.55;;;;;;;;;;5006341;28;20302;-61
2022/10/01 14:25:21;;;;;;;9.25;1.67;;;;;;;;;;5005556;28;20201;-61
2022/10/01 14:27:48;;;;;;;9.88;1.52;;;;;;;;;;5007942;28;20563;-62
2022/10/01 14:30:14;;;;;;;10.32;2.22;;;;;;;;;;5007316;28;20209;-62
2022/10/01 14:32:56;;;;;;;12.23;2.10;;;;;;;;;;5006826;28;20220;-62
2022/10/01 14:35:24;;;;;;;10.40;2.25;;;;;;;;;;5007476;28;20223;-61
2022/10/01 14:37:50;;;;;;;9.82;1.80;;;;;;;;;;5006698;28;20529;-62
2022/10/01 14:40:22;;;;;;;8.00;1.40;;;;;;;;;;5006825;28;20220;-61
2022/10/01 14:42:58;;;;;;;8.63;1.45;;;;;;;;;;5008413;28;20274;-62
2022/10/01 14:45:23;;;;;;;12.07;1.70;;;;;;;;;;5007705;28;20204;-62
2022/10/01 14:47:58;;;;;;;13.30;2.83;;;;;;;;;;5007035;28;20204;-61
2022/10/01 14:50:23;;;;;;;12.63;2.30;;;;;;;;;;5007343;28;20215;-61
2022/10/01 14:52:49;;;;;;;10.07;1.60;;;;;;;;;;5007512;28;20710;-62
2022/10/01 14:55:15;;;;;;;11.65;2.55;;;;;;;;;;5006172;28;20274;-61
2022/10/01 14:57:41;;;;;;;9.20;2.33;;;;;;;;;;5006543;28;20225;-62